Time;durP1;ratioP1;P1;durP2;ratioP2;P2;SDS_P1;SDS_P2;PMS_P1;PMS_P2;Temp;Humidity;BMP_temperature;BMP_pressure;BME280_temperature;BME280_humidity;BME280_pressure;Samples;Min_cycle;Max_cycle;Signal;HPM_P1;HPM_P2
2022/05/31 00:01:50;;;;;;;7.05;5.07;;;9.70;99.90;;;;;;5019187;28;20045;-70
2022/05/31 00:04:16;;;;;;;8.55;5.20;;;9.70;99.90;;;;;;5036425;28;20041;-71
2022/05/31 00:06:42;;;;;;;4.95;4.45;;;9.70;99.90;;;;;;5036291;28;20056;-70
2022/05/31 00:09:07;;;;;;;7.10;4.95;;;9.60;99.90;;;;;;5036458;28;20084;-70
2022/05/31 00:11:33;;;;;;;7.15;4.70;;;9.60;99.90;;;;;;5028225;28;20076;-72
2022/05/31 00:13:59;;;;;;;8.88;5.30;;;9.60;99.90;;;;;;5038460;28;20077;-71
2022/05/31 00:16:24;;;;;;;7.07;4.90;;;9.60;99.90;;;;;;5056106;28;20103;-71
2022/05/31 00:18:50;;;;;;;7.38;5.38;;;9.60;99.90;;;;;;5055975;28;20166;-72
2022/05/31 00:21:16;;;;;;;7.43;5.38;;;9.50;99.90;;;;;;5049356;28;20068;-70
2022/05/31 00:23:42;;;;;;;6.75;6.03;;;9.60;99.90;;;;;;5053472;28;20068;-70
2022/05/31 00:26:08;;;;;;;9.10;5.70;;;9.50;99.90;;;;;;5055722;28;20060;-72
2022/05/31 00:28:34;;;;;;;8.23;5.18;;;9.50;99.90;;;;;;5055720;28;20049;-71
2022/05/31 00:31:00;;;;;;;9.13;5.25;;;9.60;99.90;;;;;;5055782;28;20041;-70
2022/05/31 00:33:26;;;;;;;11.65;5.53;;;9.60;99.90;;;;;;5055731;28;20056;-70
2022/05/31 00:35:53;;;;;;;8.70;5.40;;;9.60;99.90;;;;;;5054759;28;20049;-71
2022/05/31 00:38:20;;;;;;;6.60;5.28;;;9.60;99.90;;;;;;5038061;28;20044;-72
2022/05/31 00:40:46;;;;;;;7.38;5.47;;;9.50;99.90;;;;;;5055698;28;20052;-71
2022/05/31 00:43:16;;;;;;;7.13;5.43;;;9.60;99.90;;;;;;5055315;28;20049;-70
2022/05/31 00:46:00;;;;;;;8.88;5.65;;;9.50;99.90;;;;;;5055520;28;20045;-71
2022/05/31 00:48:34;;;;;;;6.10;4.55;;;9.50;99.90;;;;;;5055506;28;20064;-70
2022/05/31 00:51:09;;;;;;;8.18;6.32;;;9.60;99.90;;;;;;5039518;28;20092;-71
2022/05/31 00:53:43;;;;;;;6.70;5.18;;;9.60;99.90;;;;;;5034203;28;20045;-74
2022/05/31 00:56:13;;;;;;;8.57;5.73;;;9.50;99.90;;;;;;5035290;28;20065;-72
2022/05/31 00:58:52;;;;;;;7.28;5.30;;;9.50;99.90;;;;;;5000554;28;20068;-70
2022/05/31 01:01:18;;;;;;;8.65;5.60;;;9.60;99.90;;;;;;5035380;28;20128;-71
2022/05/31 01:03:44;;;;;;;7.40;5.65;;;9.50;99.90;;;;;;5017637;28;20053;-71
2022/05/31 01:06:11;;;;;;;7.55;5.40;;;9.50;99.90;;;;;;5052960;28;20091;-71
2022/05/31 01:08:41;;;;;;;7.32;5.90;;;9.50;99.90;;;;;;5037871;28;20057;-71
2022/05/31 01:11:08;;;;;;;7.53;5.50;;;9.50;99.90;;;;;;5055179;28;20040;-71
2022/05/31 01:13:34;;;;;;;7.05;5.57;;;9.50;99.90;;;;;;5055213;28;20072;-72
2022/05/31 01:16:10;;;;;;;7.03;5.50;;;9.50;99.90;;;;;;5071404;28;20470;-70
2022/05/31 01:18:37;;;;;;;6.97;5.28;;;9.50;99.90;;;;;;5057160;28;20052;-72
2022/05/31 01:21:03;;;;;;;8.02;6.07;;;9.50;99.90;;;;;;5075005;28;20037;-71
2022/05/31 01:23:36;;;;;;;8.77;5.60;;;9.50;99.90;;;;;;5074980;28;20056;-71
2022/05/31 01:26:20;;;;;;;6.70;5.25;;;9.60;99.90;;;;;;5048969;28;20045;-71
2022/05/31 01:29:13;;;;;;;7.45;5.70;;;9.60;99.90;;;;;;5075052;28;20052;-71
2022/05/31 01:31:49;;;;;;;7.85;5.45;;;9.60;99.90;;;;;;5074927;28;20131;-70
2022/05/31 01:34:39;;;;;;;7.38;5.65;;;9.60;99.90;;;;;;5070740;28;20057;-70
2022/05/31 01:37:05;;;;;;;6.32;5.30;;;9.60;99.90;;;;;;5054401;28;20091;-71
2022/05/31 01:39:59;;;;;;;7.28;5.38;;;9.60;99.90;;;;;;5054651;28;20052;-72
2022/05/31 01:42:44;;;;;;;5.50;4.60;;;9.70;99.90;;;;;;5054601;28;20099;-72
2022/05/31 01:45:11;;;;;;;6.97;5.15;;;9.70;99.90;;;;;;5054784;28;20115;-72
2022/05/31 01:47:38;;;;;;;6.82;4.72;;;9.70;99.90;;;;;;5042865;28;20048;-70
2022/05/31 01:50:09;;;;;;;6.53;4.78;;;9.70;99.90;;;;;;5074575;28;20044;-70
2022/05/31 01:52:35;;;;;;;7.22;5.03;;;9.70;99.90;;;;;;5057234;28;20071;-72
2022/05/31 01:55:01;;;;;;;6.38;5.20;;;9.70;99.90;;;;;;5074542;28;20114;-71
2022/05/31 01:57:28;;;;;;;7.55;4.85;;;9.70;99.90;;;;;;5074572;28;20056;-71
2022/05/31 02:00:00;;;;;;;6.05;4.60;;;9.70;99.90;;;;;;5074445;28;20079;-72
2022/05/31 02:02:26;;;;;;;7.13;4.80;;;9.70;99.90;;;;;;5065152;28;20053;-71
2022/05/31 02:04:51;;;;;;;6.82;4.63;;;9.70;99.90;;;;;;5054421;28;20067;-71
2022/05/31 02:07:21;;;;;;;8.90;5.25;;;9.70;99.90;;;;;;5054382;28;20041;-71
2022/05/31 02:09:50;;;;;;;10.35;4.95;;;9.70;99.90;;;;;;5054594;28;20048;-73
2022/05/31 02:12:17;;;;;;;7.68;5.00;;;9.70;99.90;;;;;;5054383;28;20119;-72
2022/05/31 02:14:44;;;;;;;7.40;5.32;;;9.70;99.90;;;;;;5036636;28;20041;-70
2022/05/31 02:17:10;;;;;;;7.68;5.10;;;9.70;99.90;;;;;;5055552;28;20045;-72
2022/05/31 02:19:36;;;;;;;6.25;4.88;;;9.70;99.90;;;;;;5045541;28;20387;-73
2022/05/31 02:22:06;;;;;;;6.93;4.60;;;9.70;99.90;;;;;;5038216;28;20076;-72
2022/05/31 02:24:32;;;;;;;6.20;4.80;;;9.80;99.90;;;;;;5038134;28;20080;-70
2022/05/31 02:26:58;;;;;;;6.60;4.32;;;9.80;99.90;;;;;;5038272;28;20072;-73
2022/05/31 02:29:29;;;;;;;5.20;4.55;;;9.80;99.90;;;;;;5038058;28;20430;-70
2022/05/31 02:31:57;;;;;;;7.47;5.30;;;9.80;99.90;;;;;;5054687;28;20040;-70
2022/05/31 02:34:29;;;;;;;8.52;4.88;;;9.80;99.90;;;;;;5078089;28;20067;-71
2022/05/31 02:36:55;;;;;;;5.57;4.70;;;9.80;99.90;;;;;;5078040;28;20458;-72
2022/05/31 02:39:21;;;;;;;6.78;4.85;;;9.80;99.90;;;;;;5077789;28;20083;-70
2022/05/31 02:41:47;;;;;;;7.28;4.50;;;9.80;99.90;;;;;;5077912;28;20040;-71
2022/05/31 02:44:14;;;;;;;5.03;3.90;;;9.90;99.90;;;;;;5060081;28;20056;-72
2022/05/31 02:46:39;;;;;;;5.13;3.95;;;9.90;99.90;;;;;;5074605;28;20047;-71
2022/05/31 02:49:06;;;;;;;5.88;4.53;;;9.80;99.90;;;;;;5060284;28;20048;-71
2022/05/31 02:51:41;;;;;;;6.00;4.68;;;9.90;99.90;;;;;;5077973;28;20063;-70
2022/05/31 02:54:08;;;;;;;4.60;3.72;;;9.90;99.90;;;;;;5077579;28;20061;-71
2022/05/31 02:56:33;;;;;;;5.15;3.95;;;9.90;99.90;;;;;;5077451;28;20045;-71
2022/05/31 02:58:59;;;;;;;5.82;3.70;;;9.90;99.90;;;;;;5073887;28;21149;-70
2022/05/31 03:01:33;;;;;;;4.90;3.80;;;9.90;99.90;;;;;;5057578;28;20068;-70
2022/05/31 03:03:59;;;;;;;;;;;9.90;99.90;;;;;;5057846;28;20041;-70
2022/05/31 03:06:25;;;;;;;5.35;4.15;;;9.90;99.90;;;;;;5057331;28;20247;-71
2022/05/31 03:08:51;;;;;;;6.03;3.75;;;9.90;99.90;;;;;;5057659;28;20045;-70
2022/05/31 03:11:32;;;;;;;5.38;3.50;;;9.90;99.90;;;;;;5057232;28;20102;-71
2022/05/31 03:14:27;;;;;;;4.10;3.63;;;9.90;99.90;;;;;;5056412;28;20037;-70
2022/05/31 03:17:09;;;;;;;6.45;3.70;;;9.90;99.90;;;;;;5056904;28;20478;-71
2022/05/31 03:19:39;;;;;;;5.38;3.55;;;9.90;99.90;;;;;;5056586;28;20462;-70
2022/05/31 03:22:11;;;;;;;7.20;3.55;;;9.90;99.90;;;;;;5039886;28;20061;-69
2022/05/31 03:24:46;;;;;;;5.95;3.60;;;9.90;99.90;;;;;;5039427;28;20048;-70
2022/05/31 03:27:12;;;;;;;5.43;3.70;;;9.90;99.90;;;;;;5056792;28;20088;-70
2022/05/31 03:29:45;;;;;;;5.53;3.70;;;9.90;99.90;;;;;;5067561;28;20080;-70
2022/05/31 03:32:12;;;;;;;4.00;3.30;;;9.90;99.90;;;;;;5076884;28;20054;-72
2022/05/31 03:34:38;;;;;;;5.00;3.28;;;10.00;99.90;;;;;;5076829;28;20054;-70
2022/05/31 03:37:04;;;;;;;4.55;3.20;;;10.00;99.90;;;;;;5059452;28;20048;-70
2022/05/31 03:39:30;;;;;;;3.83;3.42;;;10.00;99.90;;;;;;5059165;28;20125;-72
2022/05/31 03:41:55;;;;;;;4.65;3.33;;;10.00;99.90;;;;;;5076713;28;20044;-71
2022/05/31 03:44:21;;;;;;;5.13;3.80;;;10.00;99.90;;;;;;5074671;28;20044;-70
2022/05/31 03:46:47;;;;;;;5.85;4.00;;;10.00;99.90;;;;;;5076037;28;20131;-70
2022/05/31 03:49:14;;;;;;;4.22;3.65;;;10.00;99.90;;;;;;5076657;28;20045;-70
2022/05/31 03:51:40;;;;;;;5.93;3.88;;;10.00;99.90;;;;;;5072298;28;20040;-70
2022/05/31 03:54:05;;;;;;;6.78;3.65;;;10.00;99.90;;;;;;5035431;28;20064;-70
2022/05/31 03:56:31;;;;;;;4.00;3.40;;;10.00;99.90;;;;;;5036628;28;20049;-71
2022/05/31 03:58:56;;;;;;;4.55;3.65;;;10.00;99.90;;;;;;5036426;28;20420;-70
2022/05/31 04:01:22;;;;;;;5.68;4.07;;;10.00;99.90;;;;;;5036379;28;20057;-70
2022/05/31 04:03:48;;;;;;;6.68;4.15;;;10.00;99.90;;;;;;5036293;28;20038;-72
2022/05/31 04:06:13;;;;;;;6.15;4.10;;;10.00;99.90;;;;;;5035503;28;20137;-71
2022/05/31 04:08:39;;;;;;;6.75;4.35;;;10.00;99.90;;;;;;5036357;28;20451;-72
2022/05/31 04:11:05;;;;;;;5.47;4.00;;;10.00;99.90;;;;;;5036137;28;20109;-70
2022/05/31 04:13:30;;;;;;;5.38;4.10;;;10.00;99.90;;;;;;5036188;28;20049;-70
2022/05/31 04:16:10;;;;;;;6.57;4.13;;;10.00;99.90;;;;;;5035933;28;20099;-70
2022/05/31 04:18:37;;;;;;;4.85;3.97;;;10.10;99.90;;;;;;5035955;28;20053;-71
2022/05/31 04:21:05;;;;;;;5.30;4.05;;;10.10;99.90;;;;;;5040931;28;20041;-70
2022/05/31 04:26:15;;;;;;;5.90;4.15;;;10.00;99.90;;;;;;5014805;28;20132;-72
2022/05/31 04:28:40;;;;;;;5.82;4.30;;;10.10;99.90;;;;;;5015941;28;20133;-70
2022/05/31 04:31:07;;;;;;;7.22;4.00;;;10.10;99.90;;;;;;5016151;28;20448;-73
2022/05/31 04:33:34;;;;;;;8.38;4.50;;;10.10;99.90;;;;;;5016148;28;20057;-71
2022/05/31 04:36:02;;;;;;;6.25;4.38;;;10.10;99.90;;;;;;5041592;28;20041;-72
2022/05/31 04:38:28;;;;;;;5.50;3.92;;;10.20;99.90;;;;;;5052302;28;20047;-70
2022/05/31 04:40:54;;;;;;;6.43;4.55;;;10.20;99.90;;;;;;5053943;28;20041;-70
2022/05/31 04:43:19;;;;;;;6.05;4.35;;;10.20;99.90;;;;;;5055549;28;20060;-71
2022/05/31 04:45:46;;;;;;;5.85;5.00;;;10.20;99.90;;;;;;5055414;28;20049;-72
2022/05/31 04:48:12;;;;;;;7.55;4.30;;;10.20;99.90;;;;;;5055360;28;20353;-72
2022/05/31 04:50:37;;;;;;;6.38;4.30;;;10.20;99.90;;;;;;5042093;28;20045;-73
2022/05/31 04:53:03;;;;;;;4.63;4.13;;;10.30;99.90;;;;;;5041931;28;20135;-70
2022/05/31 04:55:29;;;;;;;6.82;4.22;;;10.30;99.90;;;;;;5055141;28;20100;-72
2022/05/31 04:57:55;;;;;;;6.38;4.28;;;10.30;99.90;;;;;;5054990;28;20466;-70
2022/05/31 05:00:21;;;;;;;6.22;4.47;;;10.30;99.90;;;;;;5051761;28;20135;-71
2022/05/31 05:02:46;;;;;;;5.95;5.22;;;10.30;99.90;;;;;;5051651;28;20048;-73
2022/05/31 05:05:12;;;;;;;5.70;3.92;;;10.30;99.90;;;;;;5057974;28;20084;-70
2022/05/31 05:07:38;;;;;;;6.25;4.18;;;10.40;99.90;;;;;;5074988;28;20123;-70
2022/05/31 05:10:08;;;;;;;8.52;4.35;;;10.40;99.90;;;;;;5072748;28;20048;-72
2022/05/31 05:12:34;;;;;;;4.93;4.22;;;10.40;99.90;;;;;;5069462;28;20044;-71
2022/05/31 05:15:00;;;;;;;5.10;4.25;;;10.50;99.90;;;;;;5057529;28;20056;-70
2022/05/31 05:17:26;;;;;;;5.95;4.53;;;10.40;99.90;;;;;;5075192;28;20062;-74
2022/05/31 05:19:52;;;;;;;5.65;4.40;;;10.50;99.90;;;;;;5074841;28;20048;-72
2022/05/31 05:22:17;;;;;;;5.68;3.88;;;10.50;99.90;;;;;;5075149;28;20454;-70
2022/05/31 05:24:43;;;;;;;5.10;4.47;;;10.50;99.90;;;;;;5056653;28;20454;-72
2022/05/31 05:27:09;;;;;;;5.75;4.57;;;10.50;99.90;;;;;;5054785;28;20095;-70
2022/05/31 05:32:18;;;;;;;5.27;4.60;;;10.50;99.90;;;;;;5057960;28;20048;-72
2022/05/31 05:34:49;;;;;;;7.07;4.63;;;10.50;99.90;;;;;;5067344;28;20052;-72
2022/05/31 05:37:16;;;;;;;5.75;4.57;;;10.60;99.90;;;;;;5071327;28;20037;-70
2022/05/31 05:39:45;;;;;;;7.10;4.55;;;10.50;99.90;;;;;;5050416;28;20434;-73
2022/05/31 05:42:12;;;;;;;8.15;4.53;;;10.50;99.90;;;;;;5053706;28;20421;-72
2022/05/31 05:44:38;;;;;;;6.68;4.47;;;10.60;99.90;;;;;;5049297;28;20371;-71
2022/05/31 05:47:14;;;;;;;5.53;4.20;;;10.70;99.90;;;;;;5050875;28;20037;-73
2022/05/31 05:49:40;;;;;;;6.10;4.05;;;10.80;99.90;;;;;;5074433;28;20044;-73
2022/05/31 05:52:09;;;;;;;6.05;4.38;;;10.80;99.90;;;;;;5074008;28;20529;-73
2022/05/31 05:54:35;;;;;;;5.95;4.53;;;10.80;99.90;;;;;;5078606;28;20053;-73
2022/05/31 05:57:01;;;;;;;6.30;4.97;;;10.80;99.90;;;;;;5078686;28;20125;-73
2022/05/31 05:59:26;;;;;;;7.10;4.95;;;10.80;99.90;;;;;;5078598;28;20087;-72
2022/05/31 06:02:02;;;;;;;7.45;4.80;;;10.90;99.90;;;;;;5078559;28;20497;-73
2022/05/31 06:04:37;;;;;;;8.30;5.13;;;10.90;99.90;;;;;;5077521;28;20410;-73
2022/05/31 06:07:13;;;;;;;7.13;4.40;;;11.00;99.90;;;;;;5078305;28;20079;-73
2022/05/31 06:09:47;;;;;;;8.27;4.80;;;11.00;99.90;;;;;;5078443;28;20454;-72
2022/05/31 06:12:22;;;;;;;6.60;4.70;;;11.00;99.90;;;;;;5078582;28;20052;-73
2022/05/31 06:14:55;;;;;;;7.68;5.18;;;11.20;99.90;;;;;;5077835;28;20094;-73
2022/05/31 06:17:25;;;;;;;9.82;4.38;;;11.20;99.90;;;;;;5078152;28;20040;-73
2022/05/31 06:19:52;;;;;;;6.55;4.00;;;11.30;99.90;;;;;;5073195;28;20041;-72
2022/05/31 06:22:19;;;;;;;7.90;4.15;;;11.30;99.90;;;;;;5078281;28;20044;-73
2022/05/31 06:24:46;;;;;;;6.20;3.55;;;11.40;99.90;;;;;;5078016;28;20078;-72
2022/05/31 06:27:12;;;;;;;7.80;3.72;;;11.40;99.90;;;;;;5076847;28;20040;-74
2022/05/31 06:29:37;;;;;;;8.30;3.97;;;11.50;99.90;;;;;;5077995;28;20174;-74
2022/05/31 06:32:03;;;;;;;6.22;3.70;;;11.50;99.90;;;;;;5077963;28;20131;-73
2022/05/31 06:34:29;;;;;;;6.50;3.75;;;11.50;99.90;;;;;;5075030;28;20044;-73
2022/05/31 06:37:03;;;;;;;5.70;3.85;;;11.60;99.90;;;;;;5078061;28;20040;-74
2022/05/31 06:39:28;;;;;;;7.20;4.13;;;11.60;99.90;;;;;;5078010;28;20041;-73
2022/05/31 06:41:56;;;;;;;8.95;3.85;;;11.60;99.90;;;;;;5066550;28;20486;-72
2022/05/31 06:44:22;;;;;;;6.90;3.85;;;11.60;99.90;;;;;;5057728;28;20147;-73
2022/05/31 06:46:47;;;;;;;5.32;3.95;;;11.70;99.90;;;;;;5057635;28;20124;-72
2022/05/31 06:49:13;;;;;;;5.95;3.63;;;11.70;99.90;;;;;;5057731;28;20187;-72
2022/05/31 06:57:17;;;;;;;7.80;3.97;;;11.80;99.90;;;;;;5071769;28;20107;-73
2022/05/31 06:59:43;;;;;;;7.88;4.47;;;11.80;99.90;;;;;;5077506;28;20458;-73
2022/05/31 07:02:10;;;;;;;8.00;4.45;;;11.80;99.90;;;;;;5077326;28;20060;-72
2022/05/31 07:04:35;;;;;;;6.15;4.55;;;11.90;99.90;;;;;;5060193;28;20048;-73
2022/05/31 07:07:01;;;;;;;9.00;5.15;;;11.90;99.90;;;;;;5059568;28;20056;-71
2022/05/31 07:09:27;;;;;;;6.03;4.60;;;12.00;99.90;;;;;;5056833;28;20528;-74
2022/05/31 07:11:56;;;;;;;8.55;4.72;;;12.00;99.90;;;;;;5077267;28;20041;-72
2022/05/31 07:14:22;;;;;;;7.40;5.15;;;12.00;99.90;;;;;;5059639;28;20037;-72
2022/05/31 07:16:47;;;;;;;6.97;4.97;;;12.10;99.90;;;;;;5042659;28;20094;-72
2022/05/31 07:19:13;;;;;;;7.47;5.22;;;12.10;99.90;;;;;;5073778;28;20052;-72
2022/05/31 07:21:38;;;;;;;7.35;5.25;;;12.10;99.90;;;;;;5076071;28;20461;-72
2022/05/31 07:24:04;;;;;;;11.68;4.85;;;12.10;99.90;;;;;;5071822;28;20087;-73
2022/05/31 07:26:29;;;;;;;6.25;5.15;;;12.20;99.90;;;;;;5077248;28;20075;-74
2022/05/31 07:28:56;;;;;;;6.32;5.63;;;12.30;99.90;;;;;;5077160;28;20442;-73
2022/05/31 07:31:21;;;;;;;6.18;5.50;;;12.50;99.90;;;;;;5077073;28;20060;-73
2022/05/31 07:33:47;;;;;;;7.32;5.00;;;12.60;99.90;;;;;;5059430;28;20358;-74
2022/05/31 07:36:13;;;;;;;7.22;4.70;;;12.80;99.90;;;;;;5076759;28;20036;-72
2022/05/31 07:38:38;;;;;;;8.73;5.38;;;12.90;99.90;;;;;;5074350;28;20040;-73
2022/05/31 07:41:05;;;;;;;8.32;5.43;;;13.00;99.90;;;;;;5076774;28;20036;-72
2022/05/31 07:43:31;;;;;;;8.60;5.93;;;13.00;99.90;;;;;;5076850;28;20045;-69
2022/05/31 07:46:05;;;;;;;9.18;5.35;;;13.20;99.90;;;;;;5076757;28;20354;-75
2022/05/31 07:48:34;;;;;;;6.35;5.55;;;13.30;99.90;;;;;;5076718;28;20048;-69
2022/05/31 07:51:00;;;;;;;9.40;5.40;;;13.50;99.90;;;;;;5059135;28;20442;-70
2022/05/31 07:53:26;;;;;;;7.68;5.30;;;13.70;99.90;;;;;;5058575;28;20071;-71
2022/05/31 07:56:00;;;;;;;7.38;5.40;;;13.70;99.90;;;;;;5064996;28;20052;-70
2022/05/31 07:58:32;;;;;;;9.98;6.30;;;13.90;99.90;;;;;;5038846;28;20318;-71
2022/05/31 08:01:03;;;;;;;9.48;5.15;;;14.00;99.90;;;;;;5056275;28;20037;-68
2022/05/31 08:03:30;;;;;;;7.90;5.95;;;14.20;99.90;;;;;;5056538;28;20116;-69
2022/05/31 08:05:56;;;;;;;7.53;5.40;;;14.30;99.90;;;;;;5022403;28;20064;-71
2022/05/31 08:08:21;;;;;;;7.80;5.55;;;14.40;99.90;;;;;;5069625;28;20037;-70
2022/05/31 08:10:47;;;;;;;9.32;5.15;;;14.50;99.90;;;;;;5076205;28;20044;-71
2022/05/31 08:13:13;;;;;;;7.68;5.35;;;14.70;99.90;;;;;;5076254;28;20458;-71
2022/05/31 08:15:38;;;;;;;12.32;6.68;;;14.80;99.90;;;;;;5075266;28;20139;-71
2022/05/31 08:18:04;;;;;;;9.00;5.93;;;14.90;99.90;;;;;;5075989;28;20044;-70
2022/05/31 08:20:30;;;;;;;6.70;5.20;;;14.90;99.90;;;;;;5075534;28;20063;-72
2022/05/31 08:22:56;;;;;;;9.18;5.90;;;15.10;99.90;;;;;;5074760;28;20044;-71
2022/05/31 08:25:22;;;;;;;6.50;5.30;;;15.20;99.90;;;;;;5075885;28;20041;-69
2022/05/31 08:27:47;;;;;;;7.40;5.30;;;15.40;99.90;;;;;;5075956;28;20074;-70
2022/05/31 08:30:13;;;;;;;10.55;5.90;;;15.50;99.90;;;;;;5067601;28;20459;-69
2022/05/31 08:32:38;;;;;;;7.32;6.07;;;15.70;99.90;;;;;;5055673;28;20051;-73
2022/05/31 08:35:07;;;;;;;7.43;5.82;;;15.70;99.90;;;;;;5055737;28;20095;-71
2022/05/31 08:37:33;;;;;;;9.48;6.10;;;15.90;99.90;;;;;;5055427;28;20116;-72
2022/05/31 08:39:58;;;;;;;10.23;5.78;;;15.90;99.90;;;;;;5055707;28;20124;-71
2022/05/31 08:42:52;;;;;;;11.38;6.13;;;15.90;99.90;;;;;;5055616;28;20099;-70
2022/05/31 08:45:32;;;;;;;6.97;5.93;;;16.10;99.90;;;;;;5044013;28;20056;-69
2022/05/31 08:48:26;;;;;;;10.15;5.85;;;16.10;99.90;;;;;;5075468;28;20279;-68
2022/05/31 08:57:14;;;;;;;10.00;6.22;;;16.60;99.90;;;;;;5075184;28;20373;-71
2022/05/31 09:00:04;;;;;;;9.32;6.13;;;16.60;99.90;;;;;;5054934;28;20048;-71
2022/05/31 09:02:51;;;;;;;11.43;6.43;;;16.70;99.90;;;;;;5074857;28;20521;-69
2022/05/31 09:05:30;;;;;;;10.18;6.43;;;16.90;99.90;;;;;;5075137;28;20474;-69
2022/05/31 09:08:06;;;;;;;9.05;6.78;;;17.00;99.90;;;;;;5074698;28;20113;-67
2022/05/31 09:10:40;;;;;;;9.63;7.10;;;16.90;99.90;;;;;;5075144;28;20044;-69
2022/05/31 09:13:15;;;;;;;11.18;7.45;;;16.90;99.90;;;;;;5075159;28;20037;-69
2022/05/31 09:15:57;;;;;;;8.50;6.10;;;16.80;99.90;;;;;;5074081;28;20119;-68
2022/05/31 09:18:44;;;;;;;9.43;6.95;;;17.00;99.90;;;;;;5074934;28;20048;-69
2022/05/31 09:21:42;;;;;;;10.45;7.47;;;17.00;99.90;;;;;;5057002;28;20099;-69
2022/05/31 09:24:19;;;;;;;8.52;6.38;;;17.00;99.90;;;;;;5074845;28;20032;-71
2022/05/31 09:26:53;;;;;;;8.90;6.60;;;17.10;99.90;;;;;;5073744;28;20063;-70
2022/05/31 09:29:23;;;;;;;10.02;6.80;;;17.00;99.90;;;;;;5065454;28;20040;-68
2022/05/31 09:32:27;;;;;;;13.10;7.95;;;17.10;99.90;;;;;;5054771;28;20045;-69
2022/05/31 09:35:30;;;;;;;9.60;7.75;;;17.20;99.90;;;;;;5054637;28;20049;-69
2022/05/31 09:38:07;;;;;;;11.10;8.05;;;17.20;99.90;;;;;;5054817;28;20052;-72
2022/05/31 09:40:43;;;;;;;10.38;8.20;;;17.20;99.90;;;;;;5054587;28;20128;-70
2022/05/31 09:43:14;;;;;;;7.80;6.63;;;17.00;99.90;;;;;;5066300;28;20072;-70
2022/05/31 09:45:59;;;;;;;10.35;7.68;;;17.10;99.90;;;;;;5074716;28;20080;-68
2022/05/31 09:48:25;;;;;;;10.88;7.47;;;17.10;99.90;;;;;;5074753;28;20044;-70
2022/05/31 09:50:58;;;;;;;10.57;7.53;;;17.10;99.90;;;;;;5074730;28;20044;-70
2022/05/31 09:59:06;;;;;;;10.73;7.32;;;16.70;99.90;;;;;;5074489;28;20044;-69
2022/05/31 10:01:42;;;;;;;9.82;7.13;;;16.80;99.90;;;;;;5074590;28;20044;-70
2022/05/31 10:04:11;;;;;;;12.88;7.75;;;16.80;99.90;;;;;;5074217;28;20049;-69
2022/05/31 10:06:54;;;;;;;10.73;6.63;;;16.90;99.90;;;;;;5069306;28;20036;-69
2022/05/31 10:09:22;;;;;;;10.73;6.35;;;17.00;99.90;;;;;;5053446;28;20048;-71
2022/05/31 10:11:49;;;;;;;9.10;6.30;;;17.20;99.90;;;;;;5072406;28;20032;-69
2022/05/31 10:14:25;;;;;;;14.23;6.85;;;17.30;99.90;;;;;;5074660;28;20040;-68
2022/05/31 10:16:52;;;;;;;9.40;6.80;;;17.60;99.90;;;;;;5072061;28;20037;-69
2022/05/31 10:19:27;;;;;;;10.70;7.00;;;17.80;99.90;;;;;;5074263;28;20080;-69
2022/05/31 10:21:53;;;;;;;9.90;6.55;;;17.90;99.90;;;;;;5074539;28;20056;-71
2022/05/31 10:24:29;;;;;;;11.57;7.38;;;18.10;99.90;;;;;;5073908;28;20044;-69
2022/05/31 10:27:10;;;;;;;8.68;6.65;;;18.00;99.50;;;;;;5074474;28;20079;-71
2022/05/31 10:30:06;;;;;;;9.55;6.28;;;17.90;99.90;;;;;;5037112;28;20056;-70
2022/05/31 10:32:42;;;;;;;9.50;5.93;;;18.00;99.30;;;;;;5054511;28;20075;-70
2022/05/31 10:35:19;;;;;;;13.38;7.53;;;18.10;99.90;;;;;;5053786;28;20470;-69
2022/05/31 10:37:57;;;;;;;10.45;7.13;;;18.30;99.90;;;;;;5055522;28;20572;-72
2022/05/31 10:40:37;;;;;;;12.40;7.57;;;18.40;99.90;;;;;;5057709;28;20056;-71
2022/05/31 10:43:16;;;;;;;10.55;7.07;;;18.40;99.90;;;;;;5057979;28;20456;-69
2022/05/31 10:45:43;;;;;;;12.10;8.45;;;18.40;99.90;;;;;;5068222;28;20048;-69
2022/05/31 10:48:09;;;;;;;10.68;7.70;;;18.10;99.90;;;;;;5076487;28;20067;-69
2022/05/31 10:51:01;;;;;;;11.27;8.43;;;17.70;98.90;;;;;;5077747;28;20080;-69
2022/05/31 10:53:53;;;;;;;13.52;6.82;;;17.70;99.90;;;;;;5077300;28;20096;-70
2022/05/31 10:56:38;;;;;;;11.40;8.20;;;18.00;99.90;;;;;;5077602;28;20336;-69
2022/05/31 10:59:10;;;;;;;11.52;8.85;;;18.00;99.90;;;;;;5075514;28;20091;-70
2022/05/31 11:01:42;;;;;;;10.65;7.03;;;17.90;99.90;;;;;;5039002;28;20045;-70
2022/05/31 11:04:38;;;;;;;10.65;7.40;;;18.00;99.90;;;;;;5057145;28;20053;-70
2022/05/31 11:07:13;;;;;;;13.02;7.68;;;18.10;99.90;;;;;;5057265;28;20037;-69
2022/05/31 11:12:43;;;;;;;9.88;8.02;;;18.40;99.90;;;;;;5057257;28;20049;-71
2022/05/31 11:15:15;;;;;;;11.10;7.15;;;18.50;99.90;;;;;;5044565;28;20467;-70
2022/05/31 11:17:54;;;;;;;11.68;7.18;;;18.60;99.90;;;;;;5040394;28;20520;-69
2022/05/31 11:20:26;;;;;;;10.68;7.07;;;18.50;99.20;;;;;;5074737;28;20049;-69
2022/05/31 11:23:02;;;;;;;12.18;6.57;;;18.60;99.90;;;;;;5077149;28;20451;-69
2022/05/31 11:25:45;;;;;;;11.98;7.55;;;19.20;99.90;;;;;;5077040;28;20045;-71
2022/05/31 11:28:37;;;;;;;11.85;8.27;;;19.30;96.70;;;;;;5043049;28;20102;-70
2022/05/31 11:31:17;;;;;;;9.88;6.80;;;19.50;97.60;;;;;;5076102;28;20040;-70
2022/05/31 11:34:05;;;;;;;10.32;6.40;;;19.50;97.90;;;;;;5077126;28;20067;-72
2022/05/31 11:36:59;;;;;;;9.82;7.00;;;19.90;98.90;;;;;;5076706;28;20079;-70
2022/05/31 11:39:54;;;;;;;9.30;6.45;;;20.00;91.90;;;;;;5076982;28;20438;-69
2022/05/31 11:42:26;;;;;;;8.25;5.88;;;19.50;92.90;;;;;;5058832;28;20056;-71
2022/05/31 11:45:01;;;;;;;8.20;6.35;;;19.50;94.90;;;;;;5073836;28;20045;-70
2022/05/31 11:47:39;;;;;;;11.05;6.50;;;19.50;97.80;;;;;;5076843;28;20433;-69
2022/05/31 11:50:16;;;;;;;12.48;6.63;;;19.50;95.10;;;;;;5075557;28;20044;-69
2022/05/31 11:53:03;;;;;;;9.35;6.82;;;19.20;93.00;;;;;;5075778;28;20477;-71
2022/05/31 11:56:00;;;;;;;9.40;6.78;;;19.10;95.10;;;;;;5076616;28;20378;-69
2022/05/31 11:58:48;;;;;;;9.10;6.47;;;19.40;94.30;;;;;;5066023;28;20097;-71
2022/05/31 12:01:41;;;;;;;8.60;5.40;;;20.10;96.90;;;;;;5038562;28;20479;-72
2022/05/31 12:04:35;;;;;;;12.65;6.57;;;20.80;97.10;;;;;;5056333;28;20102;-71
2022/05/31 12:07:29;;;;;;;10.00;6.60;;;20.90;93.30;;;;;;5056219;28;20072;-71
2022/05/31 12:10:13;;;;;;;8.55;5.80;;;21.50;93.80;;;;;;5055894;28;20037;-70
2022/05/31 12:12:42;;;;;;;8.18;6.32;;;21.50;94.70;;;;;;5055600;28;20075;-73
2022/05/31 12:15:20;;;;;;;14.40;5.85;;;20.90;94.40;;;;;;5076332;28;20044;-72
2022/05/31 12:18:40;;;;;;;10.80;6.10;;;21.30;95.00;;;;;;5075511;28;20110;-70
2022/05/31 12:21:22;;;;;;;10.02;7.07;;;21.50;94.00;;;;;;5036120;28;20147;-71
2022/05/31 12:24:04;;;;;;;8.93;5.70;;;21.10;91.20;;;;;;5075830;28;20056;-70
2022/05/31 12:26:46;;;;;;;9.98;6.53;;;21.20;94.70;;;;;;5075790;28;20089;-71
2022/05/31 12:29:25;;;;;;;7.25;5.07;;;20.40;92.90;;;;;;5052294;28;20463;-72
2022/05/31 12:31:51;;;;;;;8.88;5.82;;;20.30;96.10;;;;;;5075623;28;20070;-69
2022/05/31 12:34:20;;;;;;;8.75;5.43;;;20.00;97.40;;;;;;5075539;28;20117;-71
2022/05/31 12:37:04;;;;;;;8.60;5.70;;;19.80;96.70;;;;;;5075484;28;20052;-71
2022/05/31 12:39:33;;;;;;;10.18;5.60;;;19.60;96.90;;;;;;5075733;28;20040;-71
2022/05/31 12:42:33;;;;;;;8.68;4.95;;;19.30;96.20;;;;;;5073545;28;20048;-71
2022/05/31 12:45:17;;;;;;;7.07;4.72;;;19.00;96.70;;;;;;5074861;28;20087;-69
2022/05/31 12:47:50;;;;;;;10.02;5.43;;;18.80;96.50;;;;;;5075440;28;20052;-71
2022/05/31 12:50:54;;;;;;;11.63;5.80;;;18.70;97.60;;;;;;5052995;28;20374;-71
2022/05/31 12:53:22;;;;;;;8.82;5.53;;;18.50;96.60;;;;;;5055185;28;20446;-71
2022/05/31 12:56:08;;;;;;;9.15;4.70;;;18.30;97.70;;;;;;5055395;28;20045;-70
2022/05/31 12:58:48;;;;;;;10.32;5.53;;;18.40;99.50;;;;;;5055333;28;20068;-69
2022/05/31 13:01:13;;;;;;;11.95;9.30;;;18.40;99.90;;;;;;5055208;28;20128;-72
2022/05/31 13:03:42;;;;;;;13.40;10.55;;;17.90;99.90;;;;;;5054905;28;20091;-72
2022/05/31 13:06:17;;;;;;;14.65;10.80;;;17.60;99.90;;;;;;5066333;28;20055;-69
2022/05/31 13:08:52;;;;;;;11.40;10.13;;;17.30;99.90;;;;;;5075155;28;20078;-70
2022/05/31 13:20:13;;;;;;;10.77;9.68;;;16.60;99.90;;;;;;5059973;28;20122;-68
2022/05/31 13:22:44;;;;;;;15.18;10.35;;;16.40;99.90;;;;;;5054966;28;20040;-70
2022/05/31 13:25:25;;;;;;;15.52;11.95;;;16.30;99.90;;;;;;5054930;28;20049;-70
2022/05/31 13:27:55;;;;;;;13.88;10.68;;;16.10;99.90;;;;;;5054865;28;20340;-71
2022/05/31 13:30:24;;;;;;;13.25;11.13;;;16.10;99.90;;;;;;5054670;28;20045;-69
2022/05/31 13:32:50;;;;;;;13.15;10.85;;;16.10;99.90;;;;;;5054288;28;20366;-69
2022/05/31 13:35:24;;;;;;;11.13;9.90;;;16.20;99.90;;;;;;5070408;28;20174;-70
2022/05/31 13:38:04;;;;;;;11.00;9.10;;;16.30;99.90;;;;;;5074764;28;20063;-70
2022/05/31 13:40:38;;;;;;;11.55;9.23;;;16.30;99.90;;;;;;5073861;28;20176;-71
2022/05/31 13:43:24;;;;;;;11.55;9.60;;;16.40;99.90;;;;;;5074673;28;20087;-69
2022/05/31 13:45:59;;;;;;;12.85;8.65;;;16.50;99.90;;;;;;5057749;28;20044;-70
2022/05/31 13:48:32;;;;;;;14.25;8.55;;;16.60;99.90;;;;;;5074799;28;20048;-71